Welcome to Northern Hawkes Bay. New Zealand.
PWS Header
      nz Flag



Hit Counter


W3C Valid W3C Valid logo


    Wairoa

Select any of the Stations below to visit their websites.










Historic Data from Weather Underground
Select the location of interest below. Wairoa is the default. Please have patience, this Data is slow to load in.
Northern Hawkes Bay Historical Data
Daily Summary for June 15, 2017 Units:  Metric    English   Both
« Previous Day
Next Day »
Daily Weekly Monthly Yearly Custom
  High: Low: Average:
Temperature: 16.4 °C 4.0 °C 9.7 °C
Dew Point: 5.0 °C 0.8 °C 3.6 °C
Humidity: 99% 37% 68%
Wind Speed: 46.5km/h 0.0km/h 12.6km/h
Wind Gust: 62.3km/h - -
Wind- - WSW
Pressure: 1021.9 hPa 1016.5 hPa -
Precipitation: 0.0 mm    
Historical Graphs
 
 
Tabular Data for June 15, 2017
Time Temperature Dew Point Pressure Wind Wind Speed Wind Gust Humidity Rainfall Rate (Hourly) solar
00:05 9.5 °C 3.9 °C 1018.5 hPa SW 34.3 km/h 51.5 km/h 68% 0.3 mm 0 W/m2
00:10 9.4 °C 3.8 °C 1018.5 hPa SW 34.3 km/h 54.1 km/h 68% 0.3 mm 0 W/m2
00:15 9.4 °C 3.6 °C 1018.5 hPa SW 29.4 km/h 54.1 km/h 67% 0.3 mm 0 W/m2
00:20 9.4 °C 3.6 °C 1018.5 hPa SW 25.6 km/h 54.1 km/h 67% 0.3 mm 0 W/m2
00:25 9.5 °C 3.7 °C 1018.5 hPa SW 30.6 km/h 42.8 km/h 67% 0.0 mm 0 W/m2
00:30 9.6 °C 3.6 °C 1018.5 hPa SW 21.9 km/h 48.9 km/h 66% 0.0 mm 0 W/m2
00:35 9.6 °C 3.8 °C 1018.5 hPa SW 29.4 km/h 48.9 km/h 67% 0.0 mm 0 W/m2
00:40 9.6 °C 3.6 °C 1018.8 hPa SW 39.3 km/h 50.0 km/h 66% 0.0 mm 0 W/m2
00:45 9.6 °C 3.6 °C 1018.8 hPa WSW 31.7 km/h 55.0 km/h 66% 0.0 mm 0 W/m2
00:50 9.6 °C 3.3 °C 1018.8 hPa SW 25.6 km/h 55.0 km/h 65% 0.0 mm 0 W/m2
00:55 9.5 °C 3.3 °C 1018.8 hPa SW 25.6 km/h 48.9 km/h 65% 0.0 mm 0 W/m2
01:00 9.5 °C 3.3 °C 1018.8 hPa SW 27.0 km/h 48.9 km/h 65% 0.0 mm 0 W/m2
01:05 9.5 °C 3.4 °C 1018.8 hPa SW 25.6 km/h 52.6 km/h 66% 0.0 mm 0 W/m2
01:10 9.5 °C 3.3 °C 1018.8 hPa SW 23.3 km/h 52.6 km/h 65% 0.0 mm 0 W/m2
01:15 9.6 °C 3.6 °C 1018.8 hPa WSW 29.4 km/h 54.1 km/h 66% 0.0 mm 0 W/m2
01:20 9.6 °C 3.8 °C 1018.8 hPa WSW 34.3 km/h 54.1 km/h 67% 0.0 mm 0 W/m2
01:25 9.9 °C 3.4 °C 1018.8 hPa WSW 30.6 km/h 52.6 km/h 64% 0.0 mm 0 W/m2
01:30 9.8 °C 2.9 °C 1019.2 hPa SW 29.4 km/h 55.0 km/h 62% 0.0 mm 0 W/m2
01:35 10.0 °C 2.6 °C 1018.8 hPa SW 46.5 km/h 61.1 km/h 60% 0.0 mm 0 W/m2
01:40 10.0 °C 3.1 °C 1019.2 hPa SW 41.7 km/h 61.1 km/h 62% 0.0 mm 0 W/m2
01:45 10.0 °C 2.8 °C 1018.8 hPa SW 43.9 km/h 57.6 km/h 61% 0.0 mm 0 W/m2
01:50 10.1 °C 2.4 °C 1018.8 hPa SW 33.1 km/h 55.0 km/h 59% 0.0 mm 0 W/m2
01:55 10.1 °C 2.4 °C 1019.2 hPa SW 39.3 km/h 60.2 km/h 59% 0.0 mm 0 W/m2
02:00 10.0 °C 2.6 °C 1018.8 hPa SW 33.1 km/h 60.2 km/h 60% 0.0 mm 0 W/m2
02:05 10.0 °C 3.3 °C 1019.2 hPa WSW 24.5 km/h 57.6 km/h 63% 0.0 mm 0 W/m2
02:10 10.0 °C 3.3 °C 1019.5 hPa WSW 23.3 km/h 57.6 km/h 63% 0.0 mm 0 W/m2
02:15 9.9 °C 3.2 °C 1019.2 hPa WSW 41.7 km/h 56.2 km/h 63% 0.0 mm 0 W/m2
02:20 9.9 °C 3.2 °C 1019.2 hPa WSW 24.5 km/h 54.1 km/h 63% 0.0 mm 0 W/m2
02:25 9.8 °C 3.6 °C 1019.5 hPa SW 30.6 km/h 54.1 km/h 65% 0.0 mm 0 W/m2
02:30 9.7 °C 3.4 °C 1019.5 hPa SW 36.7 km/h 50.0 km/h 65% 0.0 mm 0 W/m2
02:35 9.7 °C 3.7 °C 1019.5 hPa SW 29.4 km/h 54.1 km/h 66% 0.0 mm 0 W/m2
02:40 9.6 °C 3.6 °C 1019.5 hPa WSW 30.6 km/h 54.1 km/h 66% 0.0 mm 0 W/m2
02:45 9.6 °C 3.6 °C 1019.5 hPa WSW 28.0 km/h 62.3 km/h 66% 0.0 mm 0 W/m2
02:50 9.5 °C 3.7 °C 1019.5 hPa WSW 33.1 km/h 62.3 km/h 67% 0.0 mm 0 W/m2
02:55 9.6 °C 3.3 °C 1019.5 hPa WSW 31.7 km/h 54.1 km/h 65% 0.0 mm 0 W/m2
03:00 9.6 °C 3.3 °C 1019.5 hPa WSW 34.3 km/h 54.1 km/h 65% 0.0 mm 0 W/m2
03:05 9.5 °C 3.1 °C 1019.5 hPa WSW 27.0 km/h 48.9 km/h 64% 0.0 mm 0 W/m2
03:10 9.5 °C 3.3 °C 1019.5 hPa SW 36.7 km/h 48.9 km/h 65% 0.0 mm 0 W/m2
03:15 9.6 °C 3.1 °C 1019.5 hPa SW 30.6 km/h 46.5 km/h 64% 0.0 mm 0 W/m2
03:20 9.7 °C 3.2 °C 1019.5 hPa SW 33.1 km/h 51.5 km/h 64% 0.0 mm 0 W/m2
03:25 9.6 °C 3.1 °C 1019.5 hPa WSW 37.8 km/h 51.5 km/h 64% 0.0 mm 0 W/m2
03:30 9.7 °C 3.4 °C 1019.5 hPa WSW 27.0 km/h 50.0 km/h 65% 0.0 mm 0 W/m2
03:35 9.7 °C 3.4 °C 1019.9 hPa WSW 29.4 km/h 46.5 km/h 65% 0.0 mm 0 W/m2
03:40 9.7 °C 3.7 °C 1019.9 hPa WSW 17.2 km/h 47.9 km/h 66% 0.0 mm 0 W/m2
03:45 9.7 °C 4.1 °C 1019.9 hPa WSW 25.6 km/h 47.9 km/h 68% 0.0 mm 0 W/m2
03:50 9.7 °C 3.9 °C 1019.5 hPa SW 28.0 km/h 45.4 km/h 67% 0.0 mm 0 W/m2
03:55 9.7 °C 3.7 °C 1019.9 hPa SW 21.9 km/h 47.9 km/h 66% 0.0 mm 0 W/m2
04:00 9.7 °C 3.9 °C 1019.9 hPa SW 30.6 km/h 47.9 km/h 67% 0.0 mm 0 W/m2
04:05 9.7 °C 3.4 °C 1019.9 hPa SW 25.6 km/h 47.9 km/h 65% 0.0 mm 0 W/m2
04:10 9.7 °C 3.7 °C 1019.9 hPa SW 20.9 km/h 47.9 km/h 66% 0.0 mm 0 W/m2
04:15 9.7 °C 3.9 °C 1019.9 hPa SW 30.6 km/h 47.9 km/h 67% 0.0 mm 0 W/m2
04:20 9.7 °C 3.4 °C 1019.5 hPa WSW 30.6 km/h 43.9 km/h 65% 0.0 mm 0 W/m2
04:25 9.8 °C 3.8 °C 1019.9 hPa WSW 23.3 km/h 45.4 km/h 66% 0.0 mm 0 W/m2
04:30 9.8 °C 3.6 °C 1019.9 hPa SW 34.3 km/h 46.5 km/h 65% 0.0 mm 0 W/m2
04:35 9.8 °C 3.6 °C 1019.9 hPa SW 18.3 km/h 46.5 km/h 65% 0.0 mm 0 W/m2
04:40 10.0 °C 3.7 °C 1019.9 hPa WSW 21.9 km/h 47.9 km/h 65% 0.0 mm 0 W/m2
04:45 10.0 °C 3.5 °C 1019.9 hPa SW 24.5 km/h 47.9 km/h 64% 0.0 mm 0 W/m2
04:50 10.0 °C 3.7 °C 1019.9 hPa SW 19.5 km/h 43.9 km/h 65% 0.0 mm 0 W/m2
04:55 10.0 °C 3.7 °C 1019.9 hPa WSW 27.0 km/h 43.9 km/h 65% 0.0 mm 0 W/m2
05:00 10.0 °C 3.7 °C 1020.2 hPa SW 33.1 km/h 45.4 km/h 65% 0.0 mm 0 W/m2
05:05 9.9 °C 3.8 °C 1019.9 hPa SW 23.3 km/h 50.0 km/h 66% 0.0 mm 0 W/m2
05:10 9.6 °C 3.6 °C 1020.2 hPa SW 28.0 km/h 50.0 km/h 66% 0.0 mm 0 W/m2
05:15 9.7 °C 3.9 °C 1020.2 hPa SW 28.0 km/h 48.9 km/h 67% 0.0 mm 0 W/m2
05:20 9.7 °C 4.1 °C 1020.2 hPa SW 25.6 km/h 48.9 km/h 68% 0.0 mm 0 W/m2
05:25 9.8 °C 4.2 °C 1020.2 hPa SW 27.0 km/h 39.3 km/h 68% 0.0 mm 0 W/m2
05:30 9.8 °C 4.2 °C 1020.2 hPa SW 30.6 km/h 46.5 km/h 68% 0.0 mm 0 W/m2
05:35 9.8 °C 4.2 °C 1020.2 hPa WSW 25.6 km/h 46.5 km/h 68% 0.0 mm 0 W/m2
05:40 9.9 °C 4.1 °C 1020.2 hPa SW 28.0 km/h 46.5 km/h 67% 0.0 mm 0 W/m2
05:45 9.9 °C 4.1 °C 1020.5 hPa SW 27.0 km/h 46.5 km/h 67% 0.0 mm 0 W/m2
05:50 9.9 °C 3.8 °C 1020.5 hPa SW 23.3 km/h 43.9 km/h 66% 0.0 mm 0 W/m2
05:55 9.9 °C 4.1 °C 1020.5 hPa WSW 25.6 km/h 43.9 km/h 67% 0.0 mm 0 W/m2
06:00 9.9 °C 3.6 °C 1020.5 hPa West 27.0 km/h 41.7 km/h 65% 0.0 mm 0 W/m2
06:05 10.0 °C 3.5 °C 1020.5 hPa WSW 24.5 km/h 41.7 km/h 64% 0.0 mm 0 W/m2
06:25 10.0 °C 3.7 °C 1020.5 hPa WSW 23.3 km/h 42.8 km/h 65% 0.0 mm 0 W/m2
06:30 9.9 °C 3.8 °C 1020.5 hPa WSW 30.6 km/h 45.4 km/h 66% 0.0 mm 0 W/m2
06:35 9.8 °C 3.8 °C 1020.9 hPa SW 20.9 km/h 45.4 km/h 66% 0.0 mm 0 W/m2
06:40 9.8 °C 3.8 °C 1020.9 hPa SW 29.4 km/h 39.3 km/h 66% 0.0 mm 0 W/m2
06:45 9.9 °C 3.6 °C 1020.9 hPa SW 24.5 km/h 37.8 km/h 65% 0.0 mm 0 W/m2
06:50 9.9 °C 3.8 °C 1020.9 hPa WSW 12.2 km/h 37.8 km/h 66% 0.0 mm 0 W/m2
06:55 9.9 °C 3.8 °C 1020.9 hPa WSW 29.4 km/h 36.7 km/h 66% 0.0 mm 0 W/m2
07:00 9.9 °C 3.6 °C 1020.9 hPa WSW 25.6 km/h 35.6 km/h 65% 0.0 mm 0 W/m2
07:05 9.9 °C 3.8 °C 1020.9 hPa WSW 19.5 km/h 35.6 km/h 66% 0.0 mm 0 W/m2
07:10 10.0 °C 3.7 °C 1020.9 hPa SW 17.2 km/h 35.6 km/h 65% 0.0 mm 0 W/m2
07:15 9.9 °C 3.8 °C 1020.9 hPa SW 13.4 km/h 35.6 km/h 66% 0.0 mm 0 W/m2
07:20 9.9 °C 3.8 °C 1020.9 hPa WSW 13.4 km/h 31.7 km/h 66% 0.0 mm 0 W/m2
07:25 9.9 °C 4.1 °C 1020.9 hPa WSW 15.8 km/h 31.7 km/h 67% 0.0 mm 0 W/m2
07:30 9.8 °C 3.9 °C 1020.9 hPa WSW 20.9 km/h 33.1 km/h 67% 0.0 mm 0 W/m2
07:35 9.8 °C 3.9 °C 1021.2 hPa WSW 20.9 km/h 34.3 km/h 67% 0.0 mm 0 W/m2
07:40 9.9 °C 4.1 °C 1020.9 hPa WSW 14.8 km/h 39.3 km/h 67% 0.0 mm 0 W/m2
07:45 9.9 °C 4.1 °C 1021.2 hPa WSW 28.0 km/h 39.3 km/h 67% 0.0 mm 2 W/m2
07:50 9.9 °C 3.8 °C 1021.2 hPa SW 19.5 km/h 35.6 km/h 66% 0.0 mm 3 W/m2
07:55 9.9 °C 3.8 °C 1021.2 hPa WSW 14.8 km/h 33.1 km/h 66% 0.0 mm 4 W/m2
08:00 9.8 °C 3.8 °C 1021.2 hPa WSW 15.8 km/h 31.7 km/h 66% 0.0 mm 6 W/m2
08:05 9.8 °C 3.9 °C 1021.2 hPa SW 9.7 km/h 31.7 km/h 67% 0.0 mm 7 W/m2
08:10 9.6 °C 3.8 °C 1021.2 hPa WSW 9.7 km/h 25.6 km/h 67% 0.0 mm 11 W/m2
08:15 9.5 °C 3.4 °C 1021.2 hPa West 11.1 km/h 19.5 km/h 66% 0.0 mm 18 W/m2
08:20 9.4 °C 3.6 °C 1021.2 hPa West 11.1 km/h 19.5 km/h 67% 0.0 mm 19 W/m2
08:25 9.4 °C 3.6 °C 1021.2 hPa WSW 8.7 km/h 19.5 km/h 67% 0.0 mm 24 W/m2
08:30 9.3 °C 3.3 °C 1021.2 hPa SW 12.2 km/h 19.5 km/h 66% 0.0 mm 30 W/m2
08:35 9.3 °C 3.3 °C 1021.2 hPa WSW 6.1 km/h 21.9 km/h 66% 0.0 mm 30 W/m2
08:40 9.3 °C 3.3 °C 1021.2 hPa West 11.1 km/h 21.9 km/h 66% 0.0 mm 40 W/m2
08:45 9.2 °C 3.2 °C 1021.6 hPa WNW 12.2 km/h 17.2 km/h 66% 0.0 mm 38 W/m2
08:50 9.1 °C 3.1 °C 1021.6 hPa WNW 7.2 km/h 18.3 km/h 66% 0.0 mm 67 W/m2
08:55 9.5 °C 3.4 °C 1021.2 hPa West 6.1 km/h 18.3 km/h 66% 0.0 mm 143 W/m2
09:00 10.0 °C 3.5 °C 1021.6 hPa West 8.7 km/h 15.8 km/h 64% 0.0 mm 154 W/m2
09:05 10.2 °C 3.5 °C 1021.6 hPa WSW 7.2 km/h 18.3 km/h 63% 0.0 mm 161 W/m2
09:10 10.4 °C 3.7 °C 1021.6 hPa West 7.2 km/h 24.5 km/h 63% 0.0 mm 167 W/m2
09:15 10.5 °C 3.6 °C 1021.6 hPa WSW 8.7 km/h 24.5 km/h 62% 0.0 mm 180 W/m2
09:20 10.6 °C 3.6 °C 1021.6 hPa West 6.1 km/h 14.8 km/h 62% 0.0 mm 191 W/m2
09:25 10.8 °C 3.8 °C 1021.6 hPa WNW 2.6 km/h 14.8 km/h 62% 0.0 mm 198 W/m2
09:30 11.0 °C 3.3 °C 1021.6 hPa NW 5.0 km/h 13.4 km/h 59% 0.0 mm 206 W/m2
09:35 11.0 °C 3.1 °C 1021.6 hPa West 8.7 km/h 13.4 km/h 58% 0.0 mm 211 W/m2
09:40 11.0 °C 3.3 °C 1021.6 hPa WSW 8.7 km/h 13.4 km/h 59% 0.0 mm 210 W/m2
09:45 11.0 °C 3.3 °C 1021.6 hPa WSW 7.2 km/h 17.2 km/h 59% 0.0 mm 184 W/m2
09:50 11.0 °C 3.6 °C 1021.6 hPa WSW 7.2 km/h 17.2 km/h 60% 0.0 mm 147 W/m2
09:55 11.3 °C 4.1 °C 1021.6 hPa WSW 3.5 km/h 15.8 km/h 61% 0.0 mm 102 W/m2
10:00 11.8 °C 4.3 °C 1021.6 hPa WSW 3.5 km/h 15.8 km/h 60% 0.0 mm 118 W/m2
10:05 11.8 °C 3.6 °C 1021.6 hPa West 8.7 km/h 14.8 km/h 57% 0.0 mm 120 W/m2
10:10 11.4 °C 3.7 °C 1021.6 hPa West 7.2 km/h 15.8 km/h 59% 0.0 mm 98 W/m2
10:15 11.4 °C 3.7 °C 1021.6 hPa NW 7.2 km/h 15.8 km/h 59% 0.0 mm 82 W/m2
10:20 11.7 °C 3.9 °C 1021.6 hPa NW 7.2 km/h 13.4 km/h 59% 0.0 mm 77 W/m2
10:25 11.6 °C 3.9 °C 1021.6 hPa West 6.1 km/h 13.4 km/h 59% 0.0 mm 75 W/m2
10:30 11.7 °C 3.7 °C 1021.9 hPa WSW 7.2 km/h 13.4 km/h 58% 0.0 mm 73 W/m2
10:35 11.6 °C 3.9 °C 1021.9 hPa West 7.2 km/h 14.8 km/h 59% 0.0 mm 70 W/m2
10:40 11.6 °C 4.1 °C 1021.6 hPa West 7.2 km/h 14.8 km/h 60% 0.0 mm 68 W/m2
10:45 11.5 °C 4.0 °C 1021.6 hPa WSW 6.1 km/h 20.9 km/h 60% 0.0 mm 66 W/m2
10:50 11.5 °C 4.2 °C 1021.6 hPa WSW 7.2 km/h 20.9 km/h 61% 0.0 mm 65 W/m2
10:55 11.8 °C 4.5 °C 1021.6 hPa West 9.7 km/h 15.8 km/h 61% 0.0 mm 65 W/m2
11:00 11.7 °C 4.4 °C 1021.6 hPa WSW 6.1 km/h 14.8 km/h 61% 0.0 mm 66 W/m2
11:05 11.9 °C 4.8 °C 1021.6 hPa WSW 7.2 km/h 14.8 km/h 62% 0.0 mm 65 W/m2
11:10 12.0 °C 4.2 °C 1021.2 hPa West 5.0 km/h 12.2 km/h 59% 0.0 mm 65 W/m2
11:15 12.4 °C 4.4 °C 1021.2 hPa WNW 2.6 km/h 8.7 km/h 58% 0.0 mm 65 W/m2
11:20 12.7 °C 4.9 °C 1021.6 hPa WSW 8.7 km/h 9.7 km/h 59% 0.0 mm 65 W/m2
11:25 12.2 °C 3.7 °C 1021.2 hPa SW 6.1 km/h 11.1 km/h 56% 0.0 mm 64 W/m2
11:30 12.0 °C 3.7 °C 1021.2 hPa SW 6.1 km/h 14.8 km/h 57% 0.0 mm 62 W/m2
11:35 12.0 °C 3.7 °C 1021.2 hPa WSW 7.2 km/h 14.8 km/h 57% 0.0 mm 61 W/m2
11:40 12.2 °C 3.9 °C 1020.9 hPa WSW 7.2 km/h 13.4 km/h 57% 0.0 mm 61 W/m2
11:45 12.5 °C 4.2 °C 1020.9 hPa WSW 3.5 km/h 12.2 km/h 57% 0.0 mm 60 W/m2
11:50 12.6 °C 4.1 °C 1020.9 hPa WSW 5.0 km/h 11.1 km/h 56% 0.0 mm 59 W/m2
11:55 12.6 °C 3.6 °C 1020.9 hPa West 5.0 km/h 11.1 km/h 54% 0.0 mm 57 W/m2
12:00 12.8 °C 3.4 °C 1020.5 hPa West 6.1 km/h 11.1 km/h 53% 0.0 mm 57 W/m2
12:05 13.0 °C 3.9 °C 1020.5 hPa West 5.0 km/h 8.7 km/h 54% 0.0 mm 57 W/m2
12:10 12.7 °C 3.1 °C 1020.2 hPa West 3.5 km/h 9.7 km/h 52% 0.0 mm 57 W/m2
12:15 13.3 °C 3.9 °C 1020.2 hPa West 3.5 km/h 9.7 km/h 53% 0.0 mm 56 W/m2
12:20 13.5 °C 3.6 °C 1019.9 hPa NNW 5.0 km/h 12.2 km/h 51% 0.0 mm 56 W/m2
12:25 13.3 °C 3.1 °C 1019.9 hPa NNW 6.1 km/h 12.2 km/h 50% 0.0 mm 55 W/m2
12:30 12.9 °C 2.7 °C 1019.9 hPa NW 6.1 km/h 15.8 km/h 50% 0.0 mm 55 W/m2
12:35 13.2 °C 3.0 °C 1019.5 hPa NW 3.5 km/h 15.8 km/h 50% 0.0 mm 56 W/m2
12:53 13.2 °C 3.0 °C 1019.2 hPa NNW 7.2 km/h 13.4 km/h 50% 0.0 mm 58 W/m2
12:58 13.2 °C 3.3 °C 1019.2 hPa NNW 6.1 km/h 15.8 km/h 51% 0.0 mm 58 W/m2
13:03 13.5 °C 3.6 °C 1018.8 hPa North 6.1 km/h 15.8 km/h 51% 0.0 mm 59 W/m2
13:08 14.0 °C 3.2 °C 1018.8 hPa North 6.1 km/h 13.4 km/h 48% 0.0 mm 59 W/m2
13:14 14.0 °C 2.6 °C 1018.8 hPa North 7.2 km/h 12.2 km/h 46% 0.0 mm 61 W/m2
13:19 13.7 °C 2.3 °C 1018.8 hPa North 3.5 km/h 12.2 km/h 46% 0.0 mm 62 W/m2
13:24 14.2 °C 2.7 °C 1018.8 hPa North 3.5 km/h 12.2 km/h 46% 0.0 mm 64 W/m2
13:29 14.3 °C 2.6 °C 1018.5 hPa North 7.2 km/h 11.1 km/h 45% 0.0 mm 64 W/m2
13:34 14.0 °C 1.9 °C 1018.5 hPa NNW 7.2 km/h 12.2 km/h 44% 0.0 mm 65 W/m2
13:39 14.2 °C 0.8 °C 1018.2 hPa NNW 5.0 km/h 12.2 km/h 40% 0.0 mm 67 W/m2
13:44 14.2 °C 0.8 °C 1018.2 hPa NNW 7.2 km/h 9.7 km/h 40% 0.0 mm 72 W/m2
13:49 14.4 °C 1.0 °C 1018.2 hPa North 6.1 km/h 9.7 km/h 40% 0.0 mm 102 W/m2
13:54 14.7 °C 1.9 °C 1017.8 hPa NNE 7.2 km/h 11.1 km/h 42% 0.0 mm 166 W/m2
13:59 14.8 °C 2.3 °C 1017.5 hPa North 5.0 km/h 12.2 km/h 43% 0.0 mm 228 W/m2
14:04 14.7 °C 1.9 °C 1017.5 hPa North 5.0 km/h 13.4 km/h 42% 0.0 mm 241 W/m2
14:09 14.8 °C 2.7 °C 1017.5 hPa North 5.0 km/h 13.4 km/h 44% 0.0 mm 245 W/m2
14:14 15.5 °C 3.0 °C 1017.5 hPa NNE 5.0 km/h 8.7 km/h 43% 0.0 mm 242 W/m2
14:19 15.3 °C 3.1 °C 1017.2 hPa NNE 5.0 km/h 9.7 km/h 44% 0.0 mm 238 W/m2
14:25 15.4 °C 2.9 °C 1017.2 hPa NNE 5.0 km/h 9.7 km/h 43% 0.0 mm 234 W/m2
14:30 15.5 °C 3.3 °C 1017.2 hPa North 5.0 km/h 8.7 km/h 44% 0.0 mm 230 W/m2
14:35 16.0 °C 3.4 °C 1017.2 hPa North 1.1 km/h 8.7 km/h 43% 0.0 mm 227 W/m2
14:40 16.3 °C 2.7 °C 1017.2 hPa NNE 3.5 km/h 7.2 km/h 40% 0.0 mm 222 W/m2
14:45 16.0 °C 2.1 °C 1017.2 hPa NNE 2.6 km/h 8.7 km/h 39% 0.0 mm 215 W/m2
14:50 16.1 °C 1.8 °C 1017.2 hPa NE 5.0 km/h 8.7 km/h 38% 0.0 mm 208 W/m2
14:55 15.5 °C 2.3 °C 1017.2 hPa NNE 2.6 km/h 7.2 km/h 41% 0.0 mm 201 W/m2
14:56 15.6 °C 2.4 °C 1017.2 hPa NNE 2.6 km/h 7.2 km/h 41% 0.0 mm 199 W/m2
15:01 15.7 °C 2.5 °C 1017.2 hPa North 3.5 km/h 7.2 km/h 41% 0.0 mm 190 W/m2
15:06 15.8 °C 2.6 °C 1016.8 hPa North 3.5 km/h 7.2 km/h 41% 0.0 mm 181 W/m2
15:11 15.6 °C 2.1 °C 1017.2 hPa NNE 1.1 km/h 7.2 km/h 40% 0.0 mm 167 W/m2
15:16 16.1 °C 1.8 °C 1016.8 hPa North 2.6 km/h 6.1 km/h 38% 0.0 mm 146 W/m2
15:21 16.3 °C 2.3 °C 1017.2 hPa NNE 1.1 km/h 6.1 km/h 39% 0.0 mm 130 W/m2
15:26 16.1 °C 1.4 °C 1017.2 hPa NNE 5.0 km/h 9.7 km/h 37% 0.0 mm 122 W/m2
15:31 16.0 °C 2.1 °C 1017.2 hPa NE 2.6 km/h 9.7 km/h 39% 0.0 mm 113 W/m2
15:36 16.4 °C 2.4 °C 1016.8 hPa NE 1.1 km/h 7.2 km/h 39% 0.0 mm 105 W/m2
15:41 16.4 °C 2.4 °C 1016.8 hPa ENE 1.1 km/h 5.0 km/h 39% 0.0 mm 95 W/m2
15:46 16.4 °C 2.4 °C 1016.8 hPa ENE 1.1 km/h 5.0 km/h 39% 0.0 mm 86 W/m2
15:51 16.3 °C 2.7 °C 1016.8 hPa NE 2.6 km/h 5.0 km/h 40% 0.0 mm 76 W/m2
15:56 15.6 °C 2.1 °C 1016.8 hPa NNE 3.5 km/h 6.1 km/h 40% 0.0 mm 66 W/m2
16:01 15.3 °C 2.8 °C 1016.8 hPa NNE 1.1 km/h 6.1 km/h 43% 0.0 mm 57 W/m2
16:06 15.4 °C 2.9 °C 1016.5 hPa NNE 2.6 km/h 6.1 km/h 43% 0.0 mm 49 W/m2
16:11 15.2 °C 2.7 °C 1016.8 hPa North 1.1 km/h 5.0 km/h 43% 0.0 mm 41 W/m2
16:16 15.4 °C 3.2 °C 1016.8 hPa North 1.1 km/h 5.0 km/h 44% 0.0 mm 35 W/m2
16:21 15.1 °C 2.9 °C 1016.8 hPa Calm   5.0 km/h 44% 0.0 mm 29 W/m2
16:26 14.9 °C 3.4 °C 1016.8 hPa NNW 2.6 km/h 5.0 km/h 46% 0.0 mm 23 W/m2
16:31 14.4 °C 3.2 °C 1016.8 hPa NNW 1.1 km/h 5.0 km/h 47% 0.0 mm 19 W/m2
16:36 13.8 °C 3.0 °C 1016.8 hPa NNW 2.6 km/h 3.5 km/h 48% 0.0 mm 12 W/m2
16:41 13.2 °C 3.0 °C 1016.8 hPa North 2.6 km/h 3.5 km/h 50% 0.0 mm 8 W/m2
16:46 12.5 °C 2.9 °C 1016.8 hPa North 1.1 km/h 3.5 km/h 52% 0.0 mm 4 W/m2
16:51 11.8 °C 3.1 °C 1016.5 hPa North 1.1 km/h 3.5 km/h 55% 0.0 mm 1 W/m2
16:56 11.1 °C 3.2 °C 1016.5 hPa North 1.1 km/h 2.6 km/h 58% 0.0 mm 0 W/m2
17:02 10.7 °C 3.7 °C 1016.5 hPa NNE 2.6 km/h 3.5 km/h 62% 0.0 mm 0 W/m2
17:07 10.3 °C 3.8 °C 1016.5 hPa NNE 1.1 km/h 3.5 km/h 64% 0.0 mm 0 W/m2
17:12 9.9 °C 3.8 °C 1016.5 hPa NNW 2.6 km/h 6.1 km/h 66% 0.0 mm 0 W/m2
17:17 9.5 °C 3.9 °C 1016.5 hPa Calm   6.1 km/h 68% 0.0 mm 0 W/m2
17:22 8.9 °C 3.9 °C 1016.5 hPa NW 1.1 km/h 3.5 km/h 71% 0.0 mm 0 W/m2
17:27 8.5 °C 4.1 °C 1016.5 hPa Calm   3.5 km/h 74% 0.0 mm 0 W/m2
17:32 8.3 °C 4.1 °C 1016.5 hPa ENE 2.6 km/h 3.5 km/h 75% 0.0 mm 0 W/m2
17:37 8.2 °C 4.2 °C 1016.5 hPa NNE 2.6 km/h 3.5 km/h 76% 0.0 mm 0 W/m2
17:42 7.9 °C 4.1 °C 1016.5 hPa NNW 2.6 km/h 3.5 km/h 77% 0.0 mm 0 W/m2
17:47 7.6 °C 4.0 °C 1016.5 hPa Calm   5.0 km/h 78% 0.0 mm 0 W/m2
17:52 7.4 °C 4.0 °C 1016.5 hPa NNW 3.5 km/h 5.0 km/h 79% 0.0 mm 0 W/m2
17:57 7.4 °C 4.3 °C 1016.8 hPa North 2.6 km/h 5.0 km/h 81% 0.0 mm 0 W/m2
18:02 7.3 °C 4.3 °C 1016.8 hPa North 2.6 km/h 5.0 km/h 81% 0.0 mm 0 W/m2
18:07 7.0 °C 4.2 °C 1016.8 hPa North 1.1 km/h 5.0 km/h 82% 0.0 mm 0 W/m2
18:12 6.7 °C 4.0 °C 1016.8 hPa Calm   5.0 km/h 83% 0.0 mm 0 W/m2
18:17 6.5 °C 3.8 °C 1016.8 hPa Calm   3.5 km/h 83% 0.0 mm 0 W/m2
18:22 6.3 °C 3.8 °C 1016.8 hPa NNW 3.5 km/h 5.0 km/h 84% 0.0 mm 0 W/m2
18:27 6.2 °C 3.9 °C 1016.8 hPa NNW 5.0 km/h 7.2 km/h 85% 0.0 mm 0 W/m2
18:32 6.1 °C 4.1 °C 1016.8 hPa NNW 3.5 km/h 7.2 km/h 87% 0.0 mm 0 W/m2
18:37 6.0 °C 4.2 °C 1016.8 hPa NNW 2.6 km/h 7.2 km/h 88% 0.0 mm 0 W/m2
18:42 6.0 °C 4.5 °C 1016.8 hPa NNW 5.0 km/h 8.7 km/h 90% 0.0 mm 0 W/m2
18:47 5.9 °C 4.7 °C 1017.2 hPa NNW 3.5 km/h 8.7 km/h 92% 0.0 mm 0 W/m2
18:52 5.8 °C 4.8 °C 1017.2 hPa NNW 2.6 km/h 7.2 km/h 93% 0.0 mm 0 W/m2
18:57 5.7 °C 4.7 °C 1017.2 hPa NNW 3.5 km/h 6.1 km/h 93% 0.0 mm 0 W/m2
19:02 5.6 °C 4.7 °C 1017.2 hPa NNW 3.5 km/h 6.1 km/h 94% 0.0 mm 0 W/m2
19:07 5.6 °C 4.7 °C 1017.2 hPa NNW 5.0 km/h 7.2 km/h 94% 0.0 mm 0 W/m2
19:12 5.6 °C 4.9 °C 1017.2 hPa NW 3.5 km/h 7.2 km/h 95% 0.0 mm 0 W/m2
19:17 5.6 °C 4.9 °C 1017.2 hPa NW 5.0 km/h 7.2 km/h 95% 0.0 mm 0 W/m2
19:22 5.6 °C 4.9 °C 1017.2 hPa NW 3.5 km/h 7.2 km/h 95% 0.0 mm 0 W/m2
19:27 5.6 °C 4.9 °C 1017.2 hPa NNW 5.0 km/h 8.7 km/h 95% 0.0 mm 0 W/m2
19:32 5.6 °C 5.0 °C 1017.5 hPa NNW 5.0 km/h 8.7 km/h 96% 0.0 mm 0 W/m2
19:37 5.6 °C 5.0 °C 1017.5 hPa NW 5.0 km/h 8.7 km/h 96% 0.0 mm 0 W/m2
19:42 5.6 °C 5.0 °C 1017.8 hPa NW 7.2 km/h 9.7 km/h 96% 0.0 mm 0 W/m2
19:47 5.6 °C 5.0 °C 1017.5 hPa NW 5.0 km/h 9.7 km/h 96% 0.0 mm 0 W/m2
19:52 5.5 °C 4.9 °C 1017.5 hPa NNW 5.0 km/h 9.7 km/h 96% 0.0 mm 0 W/m2
19:57 5.5 °C 4.9 °C 1017.5 hPa NNW 5.0 km/h 9.7 km/h 96% 0.0 mm 0 W/m2
20:02 5.4 °C 4.8 °C 1017.5 hPa NNW 5.0 km/h 9.7 km/h 96% 0.0 mm 0 W/m2
20:07 5.4 °C 4.8 °C 1017.8 hPa NNW 5.0 km/h 8.7 km/h 96% 0.0 mm 0 W/m2
20:12 5.3 °C 4.9 °C 1017.8 hPa NNW 7.2 km/h 9.7 km/h 97% 0.0 mm 0 W/m2
20:17 5.2 °C 4.8 °C 1017.8 hPa NNW 9.7 km/h 13.4 km/h 97% 0.0 mm 0 W/m2
20:22 5.2 °C 4.8 °C 1017.8 hPa NW 7.2 km/h 13.4 km/h 97% 0.0 mm 0 W/m2
20:27 5.2 °C 4.8 °C 1017.8 hPa NW 3.5 km/h 13.4 km/h 97% 0.0 mm 0 W/m2
20:32 5.2 °C 4.8 °C 1017.8 hPa NW 5.0 km/h 12.2 km/h 97% 0.0 mm 0 W/m2
20:37 5.1 °C 4.7 °C 1018.2 hPa NW 3.5 km/h 7.2 km/h 97% 0.0 mm 0 W/m2
20:42 4.9 °C 4.6 °C 1018.2 hPa NW 6.1 km/h 8.7 km/h 98% 0.0 mm 0 W/m2
20:47 4.8 °C 4.5 °C 1018.2 hPa NW 5.0 km/h 8.7 km/h 98% 0.0 mm 0 W/m2
20:52 4.9 °C 4.8 °C 1018.2 hPa NW 5.0 km/h 12.2 km/h 99% 0.0 mm 0 W/m2
20:57 5.0 °C 4.7 °C 1018.2 hPa NW 5.0 km/h 12.2 km/h 98% 0.0 mm 0 W/m2
21:02 5.0 °C 4.7 °C 1018.2 hPa NW 6.1 km/h 11.1 km/h 98% 0.0 mm 0 W/m2
21:07 5.0 °C 4.7 °C 1018.2 hPa NNW 5.0 km/h 9.7 km/h 98% 0.0 mm 0 W/m2
21:12 5.0 °C 4.7 °C 1018.2 hPa NNW 6.1 km/h 9.7 km/h 98% 0.0 mm 0 W/m2
21:17 4.9 °C 4.8 °C 1018.2 hPa NNW 5.0 km/h 9.7 km/h 99% 0.0 mm 0 W/m2
21:22 4.7 °C 4.6 °C 1018.2 hPa NNW 8.7 km/h 9.7 km/h 99% 0.0 mm 0 W/m2
21:27 4.6 °C 4.4 °C 1018.2 hPa NNW 6.1 km/h 11.1 km/h 99% 0.0 mm 0 W/m2
21:32 4.5 °C 4.3 °C 1018.2 hPa NW 7.2 km/h 11.1 km/h 99% 0.0 mm 0 W/m2
21:37 4.5 °C 4.3 °C 1018.2 hPa NW 6.1 km/h 14.8 km/h 99% 0.0 mm 0 W/m2
21:42 4.4 °C 4.3 °C 1018.2 hPa NW 6.1 km/h 14.8 km/h 99% 0.0 mm 0 W/m2
21:48 4.4 °C 4.3 °C 1017.8 hPa NW 8.7 km/h 11.1 km/h 99% 0.0 mm 0 W/m2
21:54 4.2 °C 4.1 °C 1018.2 hPa NW 6.1 km/h 12.2 km/h 99% 0.0 mm 0 W/m2
21:59 4.3 °C 4.2 °C 1018.2 hPa WNW 8.7 km/h 12.2 km/h 99% 0.0 mm 0 W/m2
22:04 4.3 °C 4.2 °C 1018.2 hPa NW 8.7 km/h 14.8 km/h 99% 0.0 mm 0 W/m2
22:09 4.3 °C 4.2 °C 1018.2 hPa NW 7.2 km/h 14.8 km/h 99% 0.0 mm 0 W/m2
22:14 4.3 °C 4.2 °C 1018.2 hPa NW 6.1 km/h 13.4 km/h 99% 0.0 mm 0 W/m2
22:19 4.4 °C 4.3 °C 1018.2 hPa NW 7.2 km/h 9.7 km/h 99% 0.0 mm 0 W/m2
22:24 4.3 °C 4.2 °C 1018.2 hPa NW 7.2 km/h 9.7 km/h 99% 0.0 mm 0 W/m2
22:29 4.3 °C 4.2 °C 1018.2 hPa NW 8.7 km/h 11.1 km/h 99% 0.0 mm 0 W/m2
22:34 4.2 °C 3.9 °C 1017.8 hPa NW 9.7 km/h 11.1 km/h 98% 0.0 mm 0 W/m2
22:39 4.2 °C 3.9 °C 1018.2 hPa NW 7.2 km/h 12.2 km/h 98% 0.0 mm 0 W/m2
22:44 4.2 °C 3.9 °C 1018.2 hPa NW 7.2 km/h 12.2 km/h 98% 0.0 mm 0 W/m2
22:49 4.3 °C 4.0 °C 1018.2 hPa NW 7.2 km/h 11.1 km/h 98% 0.0 mm 0 W/m2
22:54 4.3 °C 4.0 °C 1018.2 hPa NW 11.1 km/h 13.4 km/h 98% 0.0 mm 0 W/m2
22:59 4.3 °C 4.0 °C 1018.2 hPa NW 6.1 km/h 14.8 km/h 98% 0.0 mm 0 W/m2
23:04 4.2 °C 3.9 °C 1018.2 hPa NW 7.2 km/h 14.8 km/h 98% 0.0 mm 0 W/m2
23:09 4.1 °C 3.7 °C 1018.5 hPa NW 8.7 km/h 14.8 km/h 97% 0.0 mm 0 W/m2
23:14 4.0 °C 3.6 °C 1018.2 hPa NW 8.7 km/h 15.8 km/h 97% 0.0 mm 0 W/m2
23:19 4.0 °C 3.6 °C 1018.2 hPa NW 9.7 km/h 15.8 km/h 97% 0.0 mm 0 W/m2
23:24 4.0 °C 3.6 °C 1018.5 hPa NW 8.7 km/h 13.4 km/h 97% 0.0 mm 0 W/m2
23:29 4.0 °C 3.6 °C 1018.5 hPa NNW 8.7 km/h 14.8 km/h 97% 0.0 mm 0 W/m2
23:34 4.0 °C 3.6 °C 1018.5 hPa NW 8.7 km/h 14.8 km/h 97% 0.0 mm 0 W/m2
23:39 4.0 °C 3.6 °C 1018.5 hPa NW 7.2 km/h 13.4 km/h 97% 0.0 mm 0 W/m2
23:44 4.0 °C 3.6 °C 1018.5 hPa NW 6.1 km/h 13.4 km/h 97% 0.0 mm 0 W/m2
23:49 4.0 °C 3.6 °C 1018.5 hPa NW 8.7 km/h 12.2 km/h 97% 0.0 mm 0 W/m2
23:54 4.0 °C 3.6 °C 1018.8 hPa NW 7.2 km/h 12.2 km/h 97% 0.0 mm 0 W/m2
23:59 4.1 °C 3.7 °C 1018.5 hPa NNW 7.2 km/h 12.2 km/h 97% 0.0 mm 0 W/m2
Northern Hawkes Bay. New Zealand Historic Data
Compliments of Weather Underground - 2 mb